Time,TemperatureF,DewpointF,PressureIn,WindDirection,WindDirectionDegrees,WindSpeedMPH,WindSpeedGustMPH,Humidity,HourlyPrecipIn,Conditions,Clouds,dailyrainin,SoftwareType,DateUTC
2013-03-24 00:04:00,41.6,25.0,30.02,NNE,30,6.0,10.0,52,0.00,,,0.00,weatherlink.com 1.10,2013-03-24 04:04:00,
2013-03-24 00:19:00,41.2,25.0,30.02,NE,49,3.0,7.0,53,0.00,,,0.00,weatherlink.com 1.10,2013-03-24 04:19:00,
2013-03-24 00:34:00,40.7,25.0,30.02,NE,36,4.0,8.0,54,0.00,,,0.00,weatherlink.com 1.10,2013-03-24 04:34:00,
2013-03-24 00:49:00,40.2,25.0,30.02,North,9,2.0,5.0,55,0.00,,,0.00,weatherlink.com 1.10,2013-03-24 04:49:00,
2013-03-24 01:04:00,39.6,25.0,30.02,NW,316,2.0,4.0,57,0.00,,,0.00,weatherlink.com 1.10,2013-03-24 05:04:00,
2013-03-24 01:19:00,39.3,24.0,30.02,NNE,12,6.0,8.0,54,0.00,,,0.00,weatherlink.com 1.10,2013-03-24 05:19:00,
2013-03-24 01:50:00,38.6,24.0,30.01,NW,304,3.0,6.0,55,0.00,,,0.00,weatherlink.com 1.10,2013-03-24 05:50:00,
2013-03-24 02:05:00,37.5,23.0,30.02,NW,314,1.0,3.0,55,0.00,,,0.00,weatherlink.com 1.10,2013-03-24 06:05:00,
2013-03-24 02:20:00,36.7,22.0,30.02,NW,319,1.0,2.0,56,0.00,,,0.00,weatherlink.com 1.10,2013-03-24 06:20:00,
2013-03-24 02:35:00,36.1,22.0,30.01,West,280,0.0,2.0,56,0.00,,,0.00,weatherlink.com 1.10,2013-03-24 06:35:00,
2013-03-24 02:50:00,34.6,23.0,30.00,West,281,1.0,2.0,62,0.00,,,0.00,weatherlink.com 1.10,2013-03-24 06:50:00,
2013-03-24 03:05:00,34.3,24.0,30.00,WNW,285,1.0,1.0,65,0.00,,,0.00,weatherlink.com 1.10,2013-03-24 07:05:00,
2013-03-24 03:20:00,33.4,22.0,30.00,West,278,2.0,2.0,64,0.00,,,0.00,weatherlink.com 1.10,2013-03-24 07:20:00,
2013-03-24 03:35:00,33.9,22.0,30.00,West,281,1.0,3.0,62,0.00,,,0.00,weatherlink.com 1.10,2013-03-24 07:35:00,
2013-03-24 03:50:00,31.8,22.0,30.01,West,274,2.0,2.0,67,0.00,,,0.00,weatherlink.com 1.10,2013-03-24 07:50:00,
2013-03-24 04:05:00,31.3,24.0,30.03,West,264,0.0,3.0,74,0.00,,,0.00,weatherlink.com 1.10,2013-03-24 08:05:00,
2013-03-24 04:20:00,30.5,24.0,30.03,NW,307,0.0,1.0,76,0.00,,,0.00,weatherlink.com 1.10,2013-03-24 08:20:00,
2013-03-24 04:35:00,30.6,25.0,30.02,NW,307,1.0,1.0,79,0.00,,,0.00,weatherlink.com 1.10,2013-03-24 08:35:00,
2013-03-24 04:50:00,30.4,24.0,30.02,WNW,284,0.0,2.0,77,0.00,,,0.00,weatherlink.com 1.10,2013-03-24 08:50:00,
2013-03-24 05:05:00,29.8,23.0,30.03,West,267,1.0,2.0,75,0.00,,,0.00,weatherlink.com 1.10,2013-03-24 09:05:00,
2013-03-24 05:20:00,30.0,24.0,30.03,West,267,1.0,1.0,78,0.00,,,0.00,weatherlink.com 1.10,2013-03-24 09:20:00,
2013-03-24 05:35:00,30.8,26.0,30.01,NNW,344,1.0,1.0,82,0.00,,,0.00,weatherlink.com 1.10,2013-03-24 09:35:00,
2013-03-24 05:50:00,30.9,25.0,30.01,WNW,292,1.0,2.0,80,0.00,,,0.00,weatherlink.com 1.10,2013-03-24 09:50:00,
2013-03-24 06:05:00,31.5,24.0,30.00,NW,304,1.0,2.0,73,0.00,,,0.00,weatherlink.com 1.10,2013-03-24 10:05:00,
2013-03-24 06:20:00,31.7,24.0,30.00,NW,314,0.0,2.0,73,0.00,,,0.00,weatherlink.com 1.10,2013-03-24 10:20:00,
2013-03-24 06:35:00,31.5,22.0,30.00,WSW,243,0.0,1.0,69,0.00,,,0.00,weatherlink.com 1.10,2013-03-24 10:35:00,
2013-03-24 06:50:00,31.6,23.0,30.00,West,264,1.0,2.0,70,0.00,,,0.00,weatherlink.com 1.10,2013-03-24 10:50:00,
2013-03-24 07:05:00,31.3,24.0,30.01,West,260,2.0,2.0,73,0.00,,,0.00,weatherlink.com 1.10,2013-03-24 11:05:00,
2013-03-24 07:20:00,31.4,23.0,30.02,West,278,1.0,2.0,72,0.00,,,0.00,weatherlink.com 1.10,2013-03-24 11:20:00,
2013-03-24 07:35:00,31.9,23.0,30.02,WNW,295,0.0,1.0,71,0.00,,,0.00,weatherlink.com 1.10,2013-03-24 11:35:00,
2013-03-24 07:50:00,32.5,25.0,30.02,WNW,295,0.0,1.0,73,0.00,,,0.00,weatherlink.com 1.10,2013-03-24 11:50:00,
2013-03-24 08:05:00,33.7,26.0,30.01,NNE,20,1.0,3.0,72,0.00,,,0.00,weatherlink.com 1.10,2013-03-24 12:05:00,
2013-03-24 08:20:00,34.2,24.0,30.01,West,273,1.0,3.0,67,0.00,,,0.00,weatherlink.com 1.10,2013-03-24 12:20:00,
2013-03-24 08:35:00,34.8,24.0,30.01,NNE,25,2.0,2.0,66,0.00,,,0.00,weatherlink.com 1.10,2013-03-24 12:35:00,
2013-03-24 08:50:00,35.6,23.0,30.00,NE,36,5.0,7.0,61,0.00,,,0.00,weatherlink.com 1.10,2013-03-24 12:50:00,
2013-03-24 09:05:00,36.3,24.0,29.97,NNE,25,9.0,11.0,61,0.00,,,0.00,weatherlink.com 1.10,2013-03-24 13:05:00,
2013-03-24 09:20:00,36.9,24.0,29.97,NE,36,8.0,9.0,60,0.00,,,0.00,weatherlink.com 1.10,2013-03-24 13:20:00,
2013-03-24 09:35:00,37.5,25.0,29.97,NNE,30,4.0,7.0,60,0.00,,,0.00,weatherlink.com 1.10,2013-03-24 13:35:00,
2013-03-24 09:50:00,38.1,24.0,29.97,ENE,63,7.0,11.0,57,0.00,,,0.00,weatherlink.com 1.10,2013-03-24 13:50:00,
2013-03-24 10:05:00,38.6,25.0,29.96,ENE,73,9.0,12.0,59,0.00,,,0.00,weatherlink.com 1.10,2013-03-24 14:05:00,
2013-03-24 10:20:00,38.5,23.0,29.96,ENE,75,15.0,15.0,55,0.00,,,0.00,weatherlink.com 1.10,2013-03-24 14:20:00,
2013-03-24 10:35:00,38.5,25.0,29.95,ENE,73,13.0,15.0,58,0.00,,,0.00,weatherlink.com 1.10,2013-03-24 14:35:00,
2013-03-24 10:51:00,38.5,26.0,29.94,ENE,75,12.0,17.0,62,0.00,,,0.00,weatherlink.com 1.10,2013-03-24 14:51:00,
2013-03-24 11:06:00,38.4,24.0,29.93,East,85,15.0,15.0,57,0.00,,,0.00,weatherlink.com 1.10,2013-03-24 15:06:00,
2013-03-24 11:21:00,38.5,25.0,29.94,ENE,73,9.0,11.0,59,0.00,,,0.00,weatherlink.com 1.10,2013-03-24 15:21:00,
2013-03-24 11:36:00,38.5,23.0,29.93,ENE,72,8.0,10.0,55,0.00,,,0.00,weatherlink.com 1.10,2013-03-24 15:36:00,
2013-03-24 11:51:00,38.5,23.0,29.93,ENE,71,9.0,9.0,55,0.00,,,0.00,weatherlink.com 1.10,2013-03-24 15:51:00,
2013-03-24 12:06:00,38.7,26.0,29.92,ENE,71,10.0,10.0,60,0.00,,,0.00,weatherlink.com 1.10,2013-03-24 16:06:00,
2013-03-24 12:21:00,38.8,26.0,29.91,East,82,8.0,12.0,61,0.00,,,0.00,weatherlink.com 1.10,2013-03-24 16:21:00,
2013-03-24 12:36:00,38.7,25.0,29.90,East,88,8.0,11.0,58,0.00,,,0.00,weatherlink.com 1.10,2013-03-24 16:36:00,
2013-03-24 13:36:00,38.9,25.0,29.85,ENE,71,4.0,6.0,57,0.00,,,0.00,weatherlink.com 1.10,2013-03-24 17:36:00,
2013-03-24 13:51:00,39.0,26.0,29.83,ENE,72,5.0,6.0,59,0.00,,,0.00,weatherlink.com 1.10,2013-03-24 17:51:00,
2013-03-24 14:06:00,39.0,24.0,29.82,ENE,66,4.0,6.0,56,0.00,,,0.00,weatherlink.com 1.10,2013-03-24 18:06:00,
2013-03-24 14:51:00,39.2,25.0,29.79,ENE,74,4.0,4.0,57,0.00,,,0.00,weatherlink.com 1.10,2013-03-24 18:51:00,
2013-03-24 15:21:00,39.2,25.0,29.76,ENE,61,3.0,4.0,56,0.00,,,0.00,weatherlink.com 1.10,2013-03-24 19:21:00,
2013-03-24 15:51:00,39.5,25.0,29.75,NE,49,0.0,3.0,56,0.00,,,0.00,weatherlink.com 1.10,2013-03-24 19:51:00,
2013-03-24 16:06:00,39.7,25.0,29.75,NE,52,2.0,3.0,55,0.00,,,0.00,weatherlink.com 1.10,2013-03-24 20:06:00,
2013-03-24 16:21:00,40.0,25.0,29.74,NE,55,3.0,4.0,55,0.00,,,0.00,weatherlink.com 1.10,2013-03-24 20:21:00,
2013-03-24 16:36:00,40.3,25.0,29.73,NNE,12,4.0,7.0,55,0.00,,,0.00,weatherlink.com 1.10,2013-03-24 20:36:00,
2013-03-24 16:51:00,40.4,25.0,29.73,NE,49,4.0,6.0,54,0.00,,,0.00,weatherlink.com 1.10,2013-03-24 20:51:00,
2013-03-24 17:06:00,40.7,25.0,29.72,North,10,7.0,10.0,54,0.00,,,0.00,weatherlink.com 1.10,2013-03-24 21:06:00,
2013-03-24 17:21:00,40.8,25.0,29.74,NNE,14,6.0,8.0,53,0.00,,,0.00,weatherlink.com 1.10,2013-03-24 21:21:00,
2013-03-24 17:36:00,40.9,24.0,29.75,NNE,27,3.0,7.0,52,0.00,,,0.00,weatherlink.com 1.10,2013-03-24 21:36:00,
2013-03-24 18:07:00,40.9,24.0,29.77,NW,325,2.0,2.0,52,0.00,,,0.00,weatherlink.com 1.10,2013-03-24 22:07:00,
2013-03-24 18:21:00,40.9,24.0,29.76,NW,325,0.0,0.0,52,0.00,,,0.00,weatherlink.com 1.10,2013-03-24 22:21:00,
2013-03-24 18:36:00,39.1,28.0,29.77,NNE,25,0.0,12.0,65,0.00,,,0.00,weatherlink.com 1.10,2013-03-24 22:36:00,
2013-03-24 18:52:00,37.7,29.0,29.77,ESE,108,3.0,7.0,72,0.00,,,0.00,weatherlink.com 1.10,2013-03-24 22:52:00,
2013-03-24 19:07:00,36.7,30.0,29.78,SSE,148,3.0,6.0,77,0.00,,,0.00,weatherlink.com 1.10,2013-03-24 23:07:00,
2013-03-24 19:22:00,35.9,31.0,29.78,SSE,163,4.0,7.0,81,0.01,,,0.01,weatherlink.com 1.10,2013-03-24 23:22:00,
2013-03-24 19:37:00,35.3,31.0,29.78,SSE,162,4.0,5.0,85,0.01,,,0.01,weatherlink.com 1.10,2013-03-24 23:37:00,
2013-03-24 19:52:00,35.2,32.0,29.78,SE,129,3.0,4.0,87,0.02,,,0.02,weatherlink.com 1.10,2013-03-24 23:52:00,
2013-03-24 20:07:00,34.9,32.0,29.77,ESE,118,5.0,6.0,89,0.02,,,0.02,weatherlink.com 1.10,2013-03-25 00:07:00,
2013-03-24 20:22:00,34.9,32.0,29.77,ESE,116,5.0,7.0,90,0.01,,,0.02,weatherlink.com 1.10,2013-03-25 00:22:00,
2013-03-24 20:37:00,34.8,32.0,29.75,ESE,109,7.0,7.0,90,0.02,,,0.03,weatherlink.com 1.10,2013-03-25 00:37:00,
2013-03-24 20:52:00,34.6,32.0,29.75,ESE,113,4.0,5.0,91,0.02,,,0.04,weatherlink.com 1.10,2013-03-25 00:52:00,
2013-03-24 21:07:00,34.6,33.0,29.75,ESE,114,6.0,7.0,92,0.03,,,0.05,weatherlink.com 1.10,2013-03-25 01:07:00,
2013-03-24 21:22:00,34.4,32.0,29.73,ESE,104,7.0,8.0,92,0.04,,,0.06,weatherlink.com 1.10,2013-03-25 01:22:00,
2013-03-24 21:37:00,34.3,33.0,29.73,ESE,105,6.0,9.0,93,0.04,,,0.07,weatherlink.com 1.10,2013-03-25 01:37:00,
2013-03-24 21:52:00,34.5,33.0,29.72,ESE,108,12.0,12.0,93,0.04,,,0.08,weatherlink.com 1.10,2013-03-25 01:52:00,
2013-03-24 22:07:00,34.4,33.0,29.71,SE,124,7.0,10.0,93,0.03,,,0.08,weatherlink.com 1.10,2013-03-25 02:07:00,
2013-03-24 22:22:00,34.6,33.0,29.72,SSE,148,2.0,7.0,93,0.03,,,0.09,weatherlink.com 1.10,2013-03-25 02:22:00,
2013-03-24 22:37:00,35.0,33.0,29.72,SSE,152,4.0,10.0,92,0.02,,,0.09,weatherlink.com 1.10,2013-03-25 02:37:00,
2013-03-24 22:52:00,35.1,33.0,29.72,ESE,107,5.0,8.0,91,0.01,,,0.09,weatherlink.com 1.10,2013-03-25 02:52:00,
2013-03-24 23:07:00,35.3,33.0,29.72,SE,138,4.0,8.0,91,0.01,,,0.09,weatherlink.com 1.10,2013-03-25 03:07:00,
2013-03-24 23:22:00,35.4,33.0,29.73,SE,145,3.0,10.0,90,0.00,,,0.09,weatherlink.com 1.10,2013-03-25 03:22:00,
2013-03-24 23:37:00,35.5,33.0,29.71,SSE,156,5.0,13.0,90,0.00,,,0.09,weatherlink.com 1.10,2013-03-25 03:37:00,
2013-03-24 23:52:00,35.2,32.0,29.70,SE,129,8.0,10.0,89,0.00,,,0.09,weatherlink.com 1.10,2013-03-25 03:52:00,